Sabahat Telli — TCSQ6 — position and weather

sailwx.info

Track history (hours):
 
Tides and Currents Weather Stations Pressure Air Temp Water Temp Dewpoint Dewpoint Depression Visibility Wind Speed Wind Dir Waves Ship Positions

Sabahat Telli

Last reported at 2017-Sep-21 06:48 UTC. Time now 2017-Sep-25 08:17 UTC.
Position N 44°26' E 035°38'.

Length 99 m; draft 5.2 m.

Type: Tanker. MMSI: 271000961.

Date/timePositionNaut miles runAvg speedWind from/ knotsBaromVisibWave heightAir tempDewpointWater temp
2017-Sep-21 06:48N 44°26' E 035°38'413.5
2017-Sep-21 06:30N 44°29' E 035°43'713.5
2017-Sep-21 06:00N 44°32' E 035°51'713.5
2017-Sep-21 05:30N 44°36' E 035°59'713.6
2017-Sep-21 04:57N 44°40' E 036°08'2012.5
2017-Sep-21 03:21N 44°54' E 036°28'  
2017-Sep-16 02:38N 43°56' E 034°38'213.0
2017-Sep-16 02:30N 43°55' E 034°36'713.1
2017-Sep-16 01:58N 43°51' E 034°28'613.2
2017-Sep-16 01:30N 43°48' E 034°21'713.2
2017-Sep-16 01:00N 43°43' E 034°14'713.3
2017-Sep-16 00:30N 43°39' E 034°07'713.4
2017-Sep-16 00:00N 43°35' E 033°59'613.3
2017-Sep-15 23:30N 43°31' E 033°52'713.4
2017-Sep-15 22:58N 43°27' E 033°44'913.3
2017-Sep-15 22:18N 43°21' E 033°35'413.3
2017-Sep-15 22:00N 43°19' E 033°30'713.3
2017-Sep-15 21:28N 43°15' E 033°22'613.3
2017-Sep-15 21:00N 43°11' E 033°16'713.3
2017-Sep-15 20:30N 43°07' E 033°08'713.3
2017-Sep-15 20:00N 43°03' E 033°01'713.4
2017-Sep-15 19:30N 42°59' E 032°53'19213.3
2017-Sep-15 05:03N 41°16' E 029°15'212.4
2017-Sep-15 04:55N 41°15' E 029°13'144 3.5
2017-Sep-13 12:08N 43°38' E 029°38'313.5
2017-Sep-13 11:53N 43°41' E 029°39'513.5
2017-Sep-13 11:30N 43°46' E 029°40'713.4
2017-Sep-13 11:00N 43°53' E 029°41'713.5
2017-Sep-13 10:30N 43°60' E 029°43'713.3
2017-Sep-13 10:00N 44°06' E 029°44'713.2
2017-Sep-13 09:30N 44°12' E 029°46'713.2
2017-Sep-13 09:00N 44°19' E 029°47'613.2
2017-Sep-13 08:30N 44°25' E 029°49'713.0
2017-Sep-13 07:58N 44°32' E 029°49'612.9
2017-Sep-13 07:30N 44°38' E 029°49'612.5
2017-Sep-13 07:00N 44°45' E 029°49'612.3
2017-Sep-13 06:30N 44°51' E 029°49'612.2
2017-Sep-13 06:00N 44°57' E 029°49'612.3
2017-Sep-13 05:30N 45°03' E 029°49'18 0.8
2017-Sep-12 06:27N 45°10' E 029°26'7 9.0
2017-Sep-12 05:39N 45°11' E 029°15'4 8.8
2017-Sep-12 05:14N 45°11' E 029°10'2 8.9
2017-Sep-12 04:58N 45°10' E 029°07'4 9.0
2017-Sep-12 04:30N 45°10' E 029°01'6 0.5
2017-Sep-11 14:41N 45°12' E 028°52'  
Track history (hours):
 
Tides and Currents Weather Stations Pressure Air Temp Water Temp Dewpoint Dewpoint Depression Visibility Wind Speed Wind Dir Waves Ship Positions

Sabahat Telli

Last reported at 2017-Sep-21 06:48 UTC. Time now 2017-Sep-25 08:17 UTC.
Position N 44°26' E 035°38'.

Length 99 m; draft 5.2 m.

Type: Tanker. MMSI: 271000961.

Date/timePositionNaut miles runAvg speedWind from/ knotsBaromVisibWave heightAir tempDewpointWater temp
2017-Sep-21 06:48N 44°26' E 035°38'413.5
2017-Sep-21 06:30N 44°29' E 035°43'713.5
2017-Sep-21 06:00N 44°32' E 035°51'713.5
2017-Sep-21 05:30N 44°36' E 035°59'713.6
2017-Sep-21 04:57N 44°40' E 036°08'2012.5
2017-Sep-21 03:21N 44°54' E 036°28'  
2017-Sep-16 02:38N 43°56' E 034°38'213.0
2017-Sep-16 02:30N 43°55' E 034°36'713.1
2017-Sep-16 01:58N 43°51' E 034°28'613.2
2017-Sep-16 01:30N 43°48' E 034°21'713.2
2017-Sep-16 01:00N 43°43' E 034°14'713.3
2017-Sep-16 00:30N 43°39' E 034°07'713.4
2017-Sep-16 00:00N 43°35' E 033°59'613.3
2017-Sep-15 23:30N 43°31' E 033°52'713.4
2017-Sep-15 22:58N 43°27' E 033°44'913.3
2017-Sep-15 22:18N 43°21' E 033°35'413.3
2017-Sep-15 22:00N 43°19' E 033°30'713.3
2017-Sep-15 21:28N 43°15' E 033°22'613.3
2017-Sep-15 21:00N 43°11' E 033°16'713.3
2017-Sep-15 20:30N 43°07' E 033°08'713.3
2017-Sep-15 20:00N 43°03' E 033°01'713.4
2017-Sep-15 19:30N 42°59' E 032°53'19213.3
2017-Sep-15 05:03N 41°16' E 029°15'212.4
2017-Sep-15 04:55N 41°15' E 029°13'144 3.5
2017-Sep-13 12:08N 43°38' E 029°38'313.5
2017-Sep-13 11:53N 43°41' E 029°39'513.5
2017-Sep-13 11:30N 43°46' E 029°40'713.4
2017-Sep-13 11:00N 43°53' E 029°41'713.5
2017-Sep-13 10:30N 43°60' E 029°43'713.3
2017-Sep-13 10:00N 44°06' E 029°44'713.2
2017-Sep-13 09:30N 44°12' E 029°46'713.2
2017-Sep-13 09:00N 44°19' E 029°47'613.2
2017-Sep-13 08:30N 44°25' E 029°49'713.0
2017-Sep-13 07:58N 44°32' E 029°49'612.9
2017-Sep-13 07:30N 44°38' E 029°49'612.5
2017-Sep-13 07:00N 44°45' E 029°49'612.3
2017-Sep-13 06:30N 44°51' E 029°49'612.2
2017-Sep-13 06:00N 44°57' E 029°49'612.3
2017-Sep-13 05:30N 45°03' E 029°49'18 0.8
2017-Sep-12 06:27N 45°10' E 029°26'7 9.0
2017-Sep-12 05:39N 45°11' E 029°15'4 8.8
2017-Sep-12 05:14N 45°11' E 029°10'2 8.9
2017-Sep-12 04:58N 45°10' E 029°07'4 9.0
2017-Sep-12 04:30N 45°10' E 029°01'6 0.5
2017-Sep-11 14:41N 45°12' E 028°52'  

Dump ship's entire track history